TimeCST,TemperatureF,Dew PointF,Humidity,Sea Level PressureIn,VisibilityMPH,Wind Direction,Wind SpeedMPH,Gust SpeedMPH,PrecipitationIn,Events,Conditions,WindDirDegrees,DateUTC
12:53 AM,55.9,32.0,40,29.54,5.0,WNW,28.8,41.4,N/A,,Haze,300,2013-02-21 06:53:00
1:53 AM,46.9,28.9,50,29.62,10.0,WNW,19.6,27.6,N/A,,Overcast,300,2013-02-21 07:53:00
2:53 AM,45.0,25.0,46,29.64,10.0,WNW,19.6,32.2,N/A,,Overcast,290,2013-02-21 08:53:00
4:53 AM,42.1,24.1,49,29.70,10.0,WNW,13.8,21.9,N/A,,Clear,290,2013-02-21 10:53:00
6:53 AM,43.0,21.9,43,29.72,10.0,West,28.8,40.3,N/A,,Clear,280,2013-02-21 12:53:00
7:53 AM,41.0,23.0,49,29.72,10.0,West,19.6,27.6,N/A,,Clear,270,2013-02-21 13:53:00
8:53 AM,45.0,24.1,44,29.74,10.0,SW,17.3,24.2,N/A,,Clear,230,2013-02-21 14:53:00
9:53 AM,51.1,18.0,27,29.75,10.0,West,24.2,35.7,N/A,,Clear,260,2013-02-21 15:53:00
10:53 AM,53.1,16.0,23,29.77,8.0,NW,31.1,39.1,N/A,,Scattered Clouds,310,2013-02-21 16:53:00
11:02 AM,53.6,15.8,22,29.85,7.0,WNW,29.9,40.3,N/A,,Mostly Cloudy,300,2013-02-21 17:02:00
11:28 AM,55.4,14.0,20,29.85,10.0,WNW,27.6,39.1,N/A,,Scattered Clouds,290,2013-02-21 17:28:00
11:53 AM,55.9,14.0,19,29.77,10.0,WNW,25.3,35.7,N/A,,Clear,290,2013-02-21 17:53:00
12:53 PM,59.0,15.1,18,29.74,10.0,West,24.2,34.5,N/A,,Clear,280,2013-02-21 18:53:00
1:53 PM,61.0,15.1,17,29.74,10.0,West,23.0,28.8,N/A,,Clear,270,2013-02-21 19:53:00
2:53 PM,61.0,14.0,16,29.73,10.0,WNW,20.7,29.9,N/A,,Clear,300,2013-02-21 20:53:00
3:53 PM,62.1,10.0,13,29.73,10.0,WNW,19.6,35.7,N/A,,Clear,300,2013-02-21 21:53:00
4:53 PM,61.0,7.0,12,29.73,10.0,WNW,20.7,29.9,N/A,,Clear,300,2013-02-21 22:53:00
5:53 PM,59.0,7.0,13,29.74,10.0,WNW,12.7,-,N/A,,Clear,290,2013-02-21 23:53:00
6:53 PM,54.0,8.1,16,29.78,10.0,NW,5.8,-,N/A,,Clear,310,2013-02-22 00:53:00
7:53 PM,51.1,10.0,19,29.81,10.0,West,11.5,-,N/A,,Clear,260,2013-02-22 01:53:00
8:53 PM,46.9,10.9,23,29.83,10.0,Calm,Calm,-,N/A,,Clear,0,2013-02-22 02:53:00
9:53 PM,46.0,10.9,24,29.83,10.0,West,4.6,-,N/A,,Clear,270,2013-02-22 03:53:00
10:53 PM,41.0,10.9,29,29.86,10.0,SSW,9.2,-,N/A,,Clear,210,2013-02-22 04:53:00
11:53 PM,43.0,10.0,26,29.86,10.0,West,9.2,-,N/A,,Clear,260,2013-02-22 05:53:00